Time;durP1;ratioP1;P1;durP2;ratioP2;P2;SDS_P1;SDS_P2;PMS_P1;PMS_P2;Temp;Humidity;BMP_temperature;BMP_pressure;BME280_temperature;BME280_humidity;BME280_pressure;Samples;Min_cycle;Max_cycle;Signal;HPM_P1;HPM_P2
2021/09/10 00:00:46;;;;;;;19.30;11.00;;;;;;;18.11;100.00;97530.78;5053701;28;20519;-88
2021/09/10 00:03:24;;;;;;;24.13;11.02;;;;;;;17.99;100.00;97529.00;5022565;28;20087;-89
2021/09/10 00:06:04;;;;;;;16.20;11.20;;;;;;;17.73;100.00;97515.28;5041058;28;20068;-91
2021/09/10 00:08:34;;;;;;;20.55;11.60;;;;;;;17.75;100.00;97530.19;5042506;28;20025;-89
2021/09/10 00:11:01;;;;;;;17.50;11.43;;;;;;;17.70;100.00;97527.75;5057867;28;20045;-87
2021/09/10 00:13:28;;;;;;;20.75;11.60;;;;;;;17.71;100.00;97543.00;5038659;28;20052;-90
2021/09/10 00:15:56;;;;;;;17.27;11.27;;;;;;;17.65;100.00;97530.78;5042161;28;20059;-91
2021/09/10 00:18:27;;;;;;;21.00;11.73;;;;;;;17.53;100.00;97519.19;5057586;28;20036;-89
2021/09/10 00:20:54;;;;;;;18.70;11.40;;;;;;;17.58;100.00;97535.31;5057987;28;20052;-91
2021/09/10 00:23:21;;;;;;;15.77;11.90;;;;;;;17.48;100.00;97544.06;5041700;28;20045;-89
2021/09/10 00:25:48;;;;;;;17.75;11.80;;;;;;;17.52;100.00;97545.75;5041088;28;20079;-89
2021/09/10 00:28:15;;;;;;;14.88;11.18;;;;;;;17.47;100.00;97529.63;5057177;28;20071;-91
2021/09/10 00:30:45;;;;;;;16.05;11.88;;;;;;;17.43;100.00;97532.28;5057030;28;20052;-89
2021/09/10 00:33:12;;;;;;;18.20;11.70;;;;;;;17.47;100.00;97542.50;5040984;28;20025;-88
2021/09/10 00:35:39;;;;;;;18.58;11.75;;;;;;;17.40;100.00;97532.19;5041482;28;20060;-89
2021/09/10 00:38:06;;;;;;;19.33;11.52;;;;;;;17.29;100.00;97536.69;5040585;28;20055;-90
2021/09/10 00:40:36;;;;;;;19.20;12.30;;;;;;;17.35;100.00;97555.19;5056686;28;20029;-89
2021/09/10 00:43:15;;;;;;;19.42;12.48;;;;;;;17.33;100.00;97552.03;5041693;28;20047;-91
2021/09/10 00:45:48;;;;;;;16.10;11.85;;;;;;;17.22;100.00;97534.59;5040232;28;20041;-89
2021/09/10 00:48:20;;;;;;;16.40;10.90;;;;;;;17.24;100.00;97529.53;5038210;28;20049;-87
2021/09/10 00:50:58;;;;;;;15.63;11.35;;;;;;;17.42;100.00;97524.44;5044579;28;20125;-87
2021/09/10 00:53:41;;;;;;;19.75;12.50;;;;;;;17.35;100.00;97527.81;5030765;28;20048;-89
2021/09/10 00:56:16;;;;;;;18.40;11.45;;;;;;;17.28;100.00;97555.06;5031659;28;20053;-88
2021/09/10 00:58:56;;;;;;;18.33;11.50;;;;;;;17.31;100.00;97542.59;5032288;28;20049;-88
2021/09/10 01:01:24;;;;;;;17.58;12.60;;;;;;;17.18;100.00;97541.94;5039576;28;20045;-90
2021/09/10 01:03:56;;;;;;;20.02;12.00;;;;;;;17.44;100.00;97544.81;5040402;28;20042;-90
2021/09/10 01:06:42;;;;;;;21.30;11.32;;;;;;;17.34;100.00;97541.88;5057887;28;20029;-90
2021/09/10 01:09:38;;;;;;;18.05;12.05;;;;;;;17.05;100.00;97528.75;5043779;28;20049;-90
2021/09/10 01:12:09;;;;;;;17.23;12.48;;;;;;;16.80;100.00;97539.94;5040354;28;20049;-90
2021/09/10 01:14:41;;;;;;;21.63;11.82;;;;;;;16.69;100.00;97535.41;5040474;28;20097;-89
2021/09/10 01:17:16;;;;;;;20.90;12.27;;;;;;;16.69;100.00;97541.69;5038662;28;20063;-86
2021/09/10 01:19:44;;;;;;;18.80;12.50;;;;;;;16.61;100.00;97525.47;5034284;28;20055;-87
2021/09/10 01:22:11;;;;;;;21.10;12.45;;;;;;;16.91;100.00;97534.72;5035500;28;20108;-87
2021/09/10 01:25:00;;;;;;;16.75;12.07;;;;;;;16.91;100.00;97544.84;5035259;28;20082;-87
2021/09/10 01:28:03;;;;;;;19.50;12.90;;;;;;;16.83;100.00;97551.34;5039639;28;20047;-88
2021/09/10 01:30:36;;;;;;;19.35;13.48;;;;;;;16.53;100.00;97545.59;5038074;28;20045;-90
2021/09/10 01:33:07;;;;;;;19.48;12.27;;;;;;;16.64;100.00;97530.22;5053821;28;20045;-87
2021/09/10 01:35:37;;;;;;;22.58;12.45;;;;;;;16.69;100.00;97551.81;5038316;28;20051;-88
2021/09/10 01:38:07;;;;;;;17.05;13.13;;;;;;;16.74;100.00;97554.28;5037971;28;20049;-88
2021/09/10 01:40:37;;;;;;;19.73;12.50;;;;;;;16.71;100.00;97553.03;5041636;28;20072;-89
2021/09/10 01:43:06;;;;;;;20.00;13.73;;;;;;;16.68;100.00;97553.75;5041128;28;20049;-89
2021/09/10 01:45:46;;;;;;;18.42;13.13;;;;;;;16.71;100.00;97531.16;5041815;28;20033;-89
2021/09/10 01:48:34;;;;;;;17.70;12.45;;;;;;;16.66;100.00;97545.13;5041830;28;20045;-89
2021/09/10 01:51:03;;;;;;;17.77;12.82;;;;;;;16.47;100.00;97558.69;5041978;28;20056;-89
2021/09/10 01:53:35;;;;;;;20.85;12.23;;;;;;;16.33;100.00;97552.09;5042357;28;20092;-88
2021/09/10 01:56:07;;;;;;;16.60;12.73;;;;;;;16.34;100.00;97554.47;5044885;28;20101;-87
2021/09/10 01:58:35;;;;;;;20.30;12.35;;;;;;;16.46;100.00;97564.53;5060468;28;20025;-89
2021/09/10 02:01:04;;;;;;;19.27;12.07;;;;;;;16.38;100.00;97554.56;5043979;28;20101;-87
2021/09/10 02:03:32;;;;;;;16.58;12.95;;;;;;;16.48;100.00;97545.81;5043091;28;20037;-89
2021/09/10 02:06:05;;;;;;;20.60;13.93;;;;;;;16.71;100.00;97560.44;5055749;28;20052;-88
2021/09/10 02:08:34;;;;;;;24.95;14.77;;;;;;;16.47;100.00;97544.22;5047578;28;20041;-87
2021/09/10 02:11:01;;;;;;;18.92;13.88;;;;;;;16.81;100.00;97562.63;5050554;28;20049;-87
2021/09/10 02:13:29;;;;;;;21.35;14.05;;;;;;;16.71;100.00;97546.78;5051886;28;20045;-87
2021/09/10 02:16:02;;;;;;;20.00;12.77;;;;;;;16.71;100.00;97531.16;5037006;28;20052;-89
2021/09/10 02:18:36;;;;;;;24.58;14.00;;;;;;;16.42;100.00;97544.50;5039259;28;20059;-87
2021/09/10 02:21:07;;;;;;;18.63;12.60;;;;;;;16.51;100.00;97554.13;5038518;28;20219;-89
2021/09/10 02:23:41;;;;;;;19.65;13.55;;;;;;;16.73;100.00;97550.75;5041152;28;20051;-89
2021/09/10 02:26:35;;;;;;;25.50;15.85;;;;;;;16.33;100.00;97533.78;5043022;28;20029;-90
2021/09/10 02:29:45;;;;;;;23.17;16.90;;;;;;;16.72;100.00;97562.81;5048206;28;20064;-89
2021/09/10 02:32:12;;;;;;;28.10;18.40;;;;;;;17.00;100.00;97550.94;5058280;28;20052;-89
2021/09/10 02:34:46;;;;;;;26.98;19.30;;;;;;;17.38;100.00;97559.94;5043387;28;20041;-89
2021/09/10 02:37:20;;;;;;;26.17;16.95;;;;;;;17.86;100.00;97571.47;5042208;28;20068;-89
2021/09/10 02:39:53;;;;;;;24.42;16.52;;;;;;;18.01;100.00;97565.06;5042829;28;20061;-87
2021/09/10 02:42:20;;;;;;;21.50;15.63;;;;;;;18.26;100.00;97563.53;5042205;28;20048;-88
2021/09/10 02:48:19;;;;;;;26.17;13.03;;;;;;;18.72;100.00;97550.56;5031338;28;20108;-89
2021/09/10 02:50:49;;;;;;;18.50;13.38;;;;;;;18.90;100.00;97564.53;5041957;28;20148;-88
2021/09/10 02:53:19;;;;;;;20.67;13.50;;;;;;;18.87;100.00;97546.06;5041881;28;20045;-88
2021/09/10 02:56:00;;;;;;;22.63;12.75;;;;;;;19.00;100.00;97575.66;5043359;28;20029;-89
2021/09/10 02:58:43;;;;;;;23.38;11.70;;;;;;;18.82;100.00;97552.69;5042159;28;20099;-87
2021/09/10 03:01:22;;;;;;;16.90;11.60;;;;;;;18.72;100.00;97563.50;5042215;28;20041;-90
2021/09/10 03:04:01;;;;;;;19.05;12.73;;;;;;;18.31;100.00;97576.94;5041763;28;20067;-88
2021/09/10 03:06:41;;;;;;;17.98;12.43;;;;;;;18.14;100.00;97563.75;5059456;28;20056;-90
2021/09/10 03:09:26;;;;;;;24.65;13.52;;;;;;;18.12;100.00;97570.75;5057914;28;20028;-90
2021/09/10 03:11:58;;;;;;;23.40;15.90;;;;;;;17.93;100.00;97560.63;5043257;28;20049;-88
2021/09/10 03:14:25;;;;;;;22.80;16.20;;;;;;;17.87;100.00;97573.03;5042495;28;20045;-90
2021/09/10 03:16:52;;;;;;;19.58;14.10;;;;;;;17.57;100.00;97558.38;5042315;28;20041;-89
2021/09/10 03:19:20;;;;;;;21.10;13.52;;;;;;;17.64;100.00;97570.25;5041387;28;20041;-89
2021/09/10 03:21:47;;;;;;;26.75;14.75;;;;;;;17.56;100.00;97568.53;5040770;28;20307;-90
2021/09/10 03:24:17;;;;;;;24.77;18.08;;;;;;;17.51;100.00;97576.22;5040926;28;20051;-89
2021/09/10 03:26:51;;;;;;;23.92;16.23;;;;;;;17.38;100.00;97553.66;5041491;28;20100;-89
2021/09/10 03:29:28;;;;;;;23.33;16.58;;;;;;;17.33;100.00;97559.44;5041976;28;20045;-89
2021/09/10 03:31:56;;;;;;;25.08;16.08;;;;;;;17.31;100.00;97568.03;5041067;28;20051;-89
2021/09/10 03:34:39;;;;;;;28.13;17.90;;;;;;;17.13;100.00;97557.84;5042621;28;20092;-91
2021/09/10 03:37:07;;;;;;;26.85;17.10;;;;;;;17.33;100.00;97556.69;5042481;28;20059;-91
2021/09/10 03:42:37;;;;;;;30.48;17.05;;;;;;;18.10;100.00;97564.81;5063174;28;20045;-88
2021/09/10 03:45:33;;;;;;;26.30;16.42;;;;;;;18.49;100.00;97564.34;5042201;28;20033;-89
2021/09/10 03:48:14;;;;;;;22.45;15.40;;;;;;;18.57;100.00;97576.22;5041651;28;20045;-91
2021/09/10 03:50:49;;;;;;;21.63;13.95;;;;;;;18.90;100.00;97576.31;5021505;28;20033;-87
2021/09/10 03:53:18;;;;;;;21.13;13.65;;;;;;;18.83;100.00;97568.00;5020279;28;20048;-88
2021/09/10 03:55:48;;;;;;;20.17;13.23;;;;;;;19.10;100.00;97566.00;5037332;28;20096;-90
2021/09/10 03:58:15;;;;;;;20.02;13.48;;;;;;;18.91;100.00;97557.91;5021080;28;20160;-90
2021/09/10 04:00:44;;;;;;;17.85;12.13;;;;;;;18.90;100.00;97556.31;5037414;28;20037;-89
2021/09/10 04:03:14;;;;;;;22.58;11.82;;;;;;;18.91;100.00;97553.22;5033026;28;20037;-89
2021/09/10 04:05:44;;;;;;;20.13;12.63;;;;;;;18.91;100.00;97544.97;5019226;28;20121;-88
2021/09/10 04:08:20;;;;;;;15.43;11.48;;;;;;;19.21;100.00;97548.50;5035452;28;20140;-91
2021/09/10 04:11:01;;;;;;;14.65;11.90;;;;;;;18.92;100.00;97540.25;5041357;28;20081;-86
2021/09/10 04:13:39;;;;;;;18.42;11.30;;;;;;;19.22;100.00;97555.59;5023404;28;20049;-83
2021/09/10 04:16:06;;;;;;;18.67;11.70;;;;;;;19.21;100.00;97543.03;5022638;28;20053;-84
2021/09/10 04:18:33;;;;;;;17.48;11.18;;;;;;;19.33;100.00;97550.22;5009331;28;20072;-86
2021/09/10 04:21:00;;;;;;;24.17;11.30;;;;;;;19.30;100.00;97559.97;5007832;28;20144;-85
2021/09/10 04:23:27;;;;;;;16.73;11.18;;;;;;;19.29;100.00;97560.38;5008418;28;20049;-85
2021/09/10 04:25:57;;;;;;;18.48;11.80;;;;;;;19.21;100.00;97564.19;5008232;28;20049;-87
2021/09/10 04:28:25;;;;;;;23.70;13.13;;;;;;;19.10;100.00;97553.06;5021404;28;20528;-83
2021/09/10 04:30:52;;;;;;;18.40;12.15;;;;;;;19.09;100.00;97548.75;5008791;28;20056;-86
2021/09/10 04:33:21;;;;;;;17.83;12.20;;;;;;;18.95;100.00;97567.75;5021933;28;20056;-83
2021/09/10 04:35:48;;;;;;;17.33;12.27;;;;;;;18.72;100.00;97568.97;5008361;28;20080;-86
2021/09/10 04:38:15;;;;;;;18.98;11.40;;;;;;;18.89;100.00;97560.22;5000687;28;20046;-81
2021/09/10 04:40:44;;;;;;;21.55;12.02;;;;;;;18.57;100.00;97551.53;5032344;28;20056;-84
2021/09/10 04:43:11;;;;;;;16.40;12.80;;;;;;;18.56;100.00;97569.94;4998810;28;20072;-82
2021/09/10 04:45:38;;;;;;;20.05;13.10;;;;;;;18.51;100.00;97564.75;5015120;28;20049;-81
2021/09/10 04:48:05;;;;;;;19.10;13.23;;;;;;;18.49;100.00;97563.53;5014408;28;20053;-81
2021/09/10 04:50:31;;;;;;;19.65;13.38;;;;;;;18.40;100.00;97557.50;5014532;28;20049;-78
2021/09/10 04:52:58;;;;;;;18.02;13.57;;;;;;;18.36;100.00;97565.66;5014362;28;20042;-83
2021/09/10 04:55:25;;;;;;;17.85;13.20;;;;;;;18.19;100.00;97571.66;5014086;28;20204;-79
2021/09/10 04:57:55;;;;;;;20.52;14.18;;;;;;;18.32;100.00;97566.78;5016252;28;20042;-86
2021/09/10 05:00:21;;;;;;;24.33;13.95;;;;;;;18.09;100.00;97574.22;5016551;28;20472;-84
2021/09/10 05:02:48;;;;;;;18.08;13.07;;;;;;;18.03;100.00;97563.56;5014423;28;20486;-82
2021/09/10 05:05:15;;;;;;;18.25;13.10;;;;;;;17.96;100.00;97574.38;5017927;28;20084;-83
2021/09/10 05:07:42;;;;;;;18.15;12.90;;;;;;;18.11;100.00;97580.91;4998504;28;20148;-83
2021/09/10 05:10:09;;;;;;;27.98;13.40;;;;;;;18.03;100.00;97576.44;5015359;28;20120;-84
2021/09/10 05:12:36;;;;;;;21.50;13.77;;;;;;;18.09;100.00;97582.44;4997495;28;20096;-84
2021/09/10 05:15:04;;;;;;;17.17;12.65;;;;;;;18.14;100.00;97593.88;5021828;28;20044;-83
2021/09/10 05:17:32;;;;;;;18.60;12.88;;;;;;;18.17;100.00;97590.38;5015382;28;20053;-84
2021/09/10 05:20:00;;;;;;;20.15;13.73;;;;;;;18.24;100.00;97582.31;5034772;28;20131;-84
2021/09/10 05:22:30;;;;;;;20.55;13.75;;;;;;;18.29;100.00;97597.66;5029539;28;20103;-87
2021/09/10 05:24:58;;;;;;;20.80;13.23;;;;;;;18.21;100.00;97596.75;5019129;28;20049;-84
2021/09/10 05:27:25;;;;;;;22.80;12.95;;;;;;;18.28;100.00;97591.38;5039270;28;20059;-86
2021/09/10 05:29:52;;;;;;;20.85;12.65;;;;;;;18.36;100.00;97597.75;5030384;28;20629;-85
2021/09/10 05:32:23;;;;;;;22.80;14.15;;;;;;;18.31;100.00;97587.91;5027851;28;20504;-88
2021/09/10 05:34:50;;;;;;;20.10;13.43;;;;;;;18.43;100.00;97604.16;5038683;28;20600;-85
2021/09/10 05:37:17;;;;;;;24.48;13.40;;;;;;;18.37;100.00;97583.72;5019483;28;20821;-82
2021/09/10 05:39:43;;;;;;;19.30;14.07;;;;;;;18.49;100.00;97594.50;5051108;28;20045;-80
2021/09/10 05:42:10;;;;;;;19.33;13.93;;;;;;;18.59;100.00;97602.09;5051974;28;20422;-81
2021/09/10 05:44:37;;;;;;;19.77;14.02;;;;;;;18.68;100.00;97597.13;5035424;28;20059;-81
2021/09/10 05:47:04;;;;;;;17.77;12.70;;;;;;;18.80;100.00;97596.16;5036003;28;20049;-82
2021/09/10 05:49:31;;;;;;;23.23;13.75;;;;;;;18.85;100.00;97600.53;5036432;28;20045;-81
2021/09/10 05:51:57;;;;;;;19.33;13.35;;;;;;;18.92;100.00;97604.16;5038587;28;20064;-81
2021/09/10 05:54:24;;;;;;;18.73;13.57;;;;;;;19.05;100.00;97612.97;5057158;28;20052;-81
2021/09/10 05:56:51;;;;;;;20.45;13.35;;;;;;;19.37;100.00;97602.44;5041222;28;20057;-80
2021/09/10 05:59:19;;;;;;;22.58;14.45;;;;;;;19.33;100.00;97612.59;5039413;28;20067;-81
2021/09/10 06:01:45;;;;;;;38.88;25.25;;;;;;;19.39;100.00;97606.41;5053798;28;20060;-82
2021/09/10 06:04:12;;;;;;;17.38;10.85;;;;;;;19.67;100.00;97625.19;5055154;28;20051;-82
2021/09/10 06:06:41;;;;;;;15.93;11.15;;;;;;;19.77;100.00;97619.81;5020043;28;20052;-83
2021/09/10 06:09:09;;;;;;;15.90;8.95;;;;;;;20.53;100.00;97617.47;5037437;28;20100;-83
2021/09/10 06:11:36;;;;;;;18.83;8.35;;;;;;;20.73;100.00;97607.81;5038825;28;20048;-81
2021/09/10 06:14:03;;;;;;;13.88;7.82;;;;;;;21.05;100.00;97613.56;5049977;28;20111;-83
2021/09/10 06:16:30;;;;;;;13.25;7.95;;;;;;;21.25;100.00;97605.81;5052232;28;20045;-82
2021/09/10 06:18:56;;;;;;;12.63;7.75;;;;;;;21.56;100.00;97608.75;5069607;28;20041;-83
2021/09/10 06:21:23;;;;;;;12.20;7.70;;;;;;;21.63;100.00;97610.72;5053208;28;20304;-82
2021/09/10 06:23:51;;;;;;;15.30;7.22;;;;;;;21.71;100.00;97621.38;5055462;28;20033;-84
2021/09/10 06:26:19;;;;;;;10.57;7.25;;;;;;;21.78;100.00;97622.59;5039326;28;20133;-86
2021/09/10 06:28:45;;;;;;;12.32;6.65;;;;;;;21.63;100.00;97605.22;5055063;28;20041;-83
2021/09/10 06:31:12;;;;;;;14.07;7.05;;;;;;;21.85;100.00;97617.91;5071149;28;20068;-85
2021/09/10 06:33:39;;;;;;;11.50;6.65;;;;;;;21.83;100.00;97616.72;5036460;28;20056;-85
2021/09/10 06:36:06;;;;;;;10.07;6.80;;;;;;;21.89;100.00;97623.44;5053843;28;20063;-83
2021/09/10 06:38:33;;;;;;;15.10;6.63;;;;;;;21.96;100.00;97621.53;5046405;28;20051;-87
2021/09/10 06:41:01;;;;;;;9.82;6.15;;;;;;;22.00;100.00;97627.03;5053323;28;20198;-85
2021/09/10 06:43:31;;;;;;;7.93;5.82;;;;;;;22.01;100.00;97626.66;5031267;28;20045;-85
2021/09/10 06:45:59;;;;;;;9.75;6.07;;;;;;;22.00;100.00;97619.56;5050907;28;20045;-85
2021/09/10 06:48:26;;;;;;;8.93;5.93;;;;;;;22.00;100.00;97611.28;5032134;28;20558;-86
2021/09/10 06:50:53;;;;;;;12.82;6.00;;;;;;;22.16;100.00;97619.19;5029495;28;20045;-83
2021/09/10 06:53:20;;;;;;;10.93;5.95;;;;;;;22.11;100.00;97620.38;5062372;28;20037;-83
2021/09/10 06:55:53;;;;;;;10.02;5.82;;;;;;;22.19;100.00;97634.97;5047749;28;20049;-86
2021/09/10 06:58:20;;;;;;;11.07;6.13;;;;;;;22.21;100.00;97638.91;5056384;28;20040;-84
2021/09/10 07:00:46;;;;;;;9.00;5.93;;;;;;;22.18;100.00;97638.91;5037455;28;20102;-82
2021/09/10 07:03:13;;;;;;;9.43;5.95;;;;;;;22.10;100.00;97645.56;5052908;28;20463;-84
2021/09/10 07:05:52;;;;;;;12.32;6.50;;;;;;;21.98;100.00;97643.19;5054259;28;20048;-83
2021/09/10 07:08:19;;;;;;;10.30;6.22;;;;;;;21.90;100.00;97630.53;5034986;28;20049;-83
2021/09/10 07:10:46;;;;;;;12.52;6.18;;;;;;;21.95;100.00;97633.72;5018743;28;20084;-83
2021/09/10 07:13:12;;;;;;;10.80;6.38;;;;;;;21.89;100.00;97632.50;5018542;28;20053;-84
2021/09/10 07:15:42;;;;;;;12.30;6.47;;;;;;;22.06;100.00;97644.78;5035618;28;20045;-82
2021/09/10 07:18:08;;;;;;;17.65;6.57;;;;;;;22.10;100.00;97646.38;5039923;28;20155;-84
2021/09/10 07:20:37;;;;;;;10.27;6.45;;;;;;;22.40;100.00;97643.28;5034864;28;20075;-85
2021/09/10 07:23:07;;;;;;;14.77;5.82;;;;;;;22.53;100.00;97630.66;5034905;28;20071;-83
2021/09/10 07:25:38;;;;;;;9.23;5.53;;;;;;;22.43;100.00;97642.47;5026176;28;20069;-85
2021/09/10 07:28:06;;;;;;;16.38;6.63;;;;;;;22.60;100.00;97633.44;5042657;28;20067;-85
2021/09/10 07:30:33;;;;;;;8.85;6.10;;;;;;;23.00;100.00;97654.34;5020398;28;20061;-83
2021/09/10 07:33:06;;;;;;;8.90;5.78;;;;;;;23.22;100.00;97655.94;5051834;28;20036;-84
2021/09/10 07:35:33;;;;;;;14.68;6.00;;;;;;;23.36;100.00;97655.91;5018347;28;20583;-80
2021/09/10 07:38:00;;;;;;;11.27;6.00;;;;;;;23.42;100.00;97670.13;5033631;28;20059;-83
2021/09/10 07:40:32;;;;;;;8.82;5.50;;;;;;;23.41;100.00;97649.19;5033957;28;20045;-85
2021/09/10 07:43:01;;;;;;;9.40;5.30;;;;;;;23.68;100.00;97663.34;5018056;28;20189;-82
2021/09/10 07:45:29;;;;;;;8.48;5.30;;;;;;;24.00;100.00;97664.00;5033669;28;20057;-81
2021/09/10 07:47:56;;;;;;;12.00;5.57;;;;;;;24.17;100.00;97675.00;5033107;28;20049;-84
2021/09/10 07:50:25;;;;;;;9.52;5.25;;;;;;;23.99;100.00;97660.44;5017414;28;20463;-82
2021/09/10 07:53:00;;;;;;;7.57;5.22;;;;;;;24.05;100.00;97663.59;5033781;28;20334;-84
2021/09/10 07:56:08;;;;;;;8.63;5.25;;;;;;;23.83;100.00;97662.09;5052140;28;20132;-84
2021/09/10 07:58:42;;;;;;;8.63;5.22;;;;;;;23.91;100.00;97663.63;5034244;28;20048;-84
2021/09/10 08:01:28;;;;;;;9.93;5.03;;;;;;;23.92;100.00;97677.09;5020361;28;20049;-82
2021/09/10 08:03:55;;;;;;;12.00;5.18;;;;;;;24.10;100.00;97668.72;5028118;28;20137;-83
2021/09/10 08:06:25;;;;;;;9.40;5.15;;;;;;;24.32;100.00;97675.72;5053969;28;20064;-85
2021/09/10 08:09:00;;;;;;;7.35;4.50;;;;;;;24.25;100.00;97661.94;5019571;28;20063;-85
2021/09/10 08:11:29;;;;;;;8.90;5.13;;;;;;;24.50;100.00;97668.09;5055721;28;20041;-87
2021/09/10 08:13:59;;;;;;;9.98;5.13;;;;;;;24.64;100.00;97675.53;5038889;28;20238;-85
2021/09/10 08:16:29;;;;;;;12.25;4.93;;;;;;;24.88;100.00;97676.56;5037738;28;20033;-85
2021/09/10 08:19:06;;;;;;;11.27;4.72;;;;;;;24.77;100.00;97666.34;5039823;28;20207;-85
2021/09/10 08:21:45;;;;;;;11.25;4.80;;;;;;;25.14;100.00;97675.94;5055359;28;20105;-84
2021/09/10 08:24:12;;;;;;;12.98;5.72;;;;;;;24.91;100.00;97682.06;5042065;28;20477;-85
2021/09/10 08:26:45;;;;;;;9.30;5.30;;;;;;;25.00;100.00;97689.91;5038946;28;20053;-85
2021/09/10 08:29:13;;;;;;;9.10;4.43;;;;;;;24.69;100.00;97692.50;5037379;28;20041;-83
2021/09/10 08:31:46;;;;;;;8.38;4.53;;;;;;;25.02;100.00;97673.66;5020251;28;20052;-82
2021/09/10 08:34:16;;;;;;;8.65;4.93;;;;;;;25.05;100.00;97681.97;5037070;28;20189;-84
2021/09/10 08:36:51;;;;;;;6.78;4.63;;;;;;;24.96;100.00;97683.63;5055476;28;20048;-83
2021/09/10 08:39:41;;;;;;;8.50;4.97;;;;;;;25.28;100.00;97689.66;5021045;28;20045;-83
2021/09/10 08:42:19;;;;;;;10.13;5.55;;;;;;;24.97;100.00;97666.59;5021498;28;20072;-84
2021/09/10 08:44:46;;;;;;;6.97;4.60;;;;;;;25.30;100.00;97687.25;5037002;28;20037;-84
2021/09/10 08:47:15;;;;;;;11.15;4.88;;;;;;;25.40;100.00;97689.94;5018990;28;20048;-82
2021/09/10 08:49:45;;;;;;;10.68;4.55;;;;;;;25.72;100.00;97675.78;5018428;28;20072;-83
2021/09/10 08:52:15;;;;;;;7.78;4.75;;;;;;;25.73;100.00;97668.25;5018916;28;20168;-84
2021/09/10 08:54:45;;;;;;;8.10;4.60;;;;;;;25.82;100.00;97682.38;5019773;28;20055;-83
2021/09/10 08:57:12;;;;;;;10.10;4.95;;;;;;;26.07;100.00;97691.19;5035233;28;20088;-83
2021/09/10 08:59:39;;;;;;;8.00;4.40;;;;;;;26.07;100.00;97685.66;5035845;28;20079;-84
2021/09/10 09:02:06;;;;;;;7.50;4.30;;;;;;;25.82;100.00;97677.63;5035761;28;20044;-83
2021/09/10 09:04:36;;;;;;;7.22;4.20;;;;;;;25.82;100.00;97682.38;5034311;28;20071;-84
2021/09/10 09:07:09;;;;;;;7.47;4.63;;;;;;;26.37;100.00;97688.47;5019173;28;20048;-86
2021/09/10 09:09:45;;;;;;;13.20;4.72;;;;;;;26.35;100.00;97685.28;5034824;28;20053;-82
2021/09/10 09:12:30;;;;;;;10.00;4.15;;;;;;;26.38;100.00;97672.56;5034315;28;20076;-85
2021/09/10 09:15:06;;;;;;;7.23;3.87;;;;;;;26.05;100.00;97684.50;5018526;28;20056;-83
2021/09/10 09:17:43;;;;;;;8.55;4.28;;;;;;;26.02;100.00;97683.34;5049377;28;20049;-85
2021/09/10 09:20:19;;;;;;;10.40;4.53;;;;;;;26.54;100.00;97690.19;5016928;28;20128;-87
2021/09/10 09:23:06;;;;;;;10.27;4.32;;;;;;;26.35;100.00;97688.06;5017518;28;20489;-83
2021/09/10 09:25:47;;;;;;;6.80;4.15;;;;;;;26.85;100.00;97690.94;5018198;28;20136;-83
2021/09/10 09:28:24;;;;;;;8.38;4.80;;;;;;;26.36;100.00;97683.31;5016247;28;20090;-83
2021/09/10 09:31:04;;;;;;;9.63;4.63;;;;;;;26.45;100.00;97684.38;5016876;28;20049;-86
2021/09/10 09:33:50;;;;;;;8.85;4.88;;;;;;;26.48;100.00;97683.53;5032755;28;20263;-84
2021/09/10 09:36:25;;;;;;;9.73;5.40;;;;;;;26.75;100.00;97680.75;5017552;28;20055;-84
2021/09/10 09:38:53;;;;;;;9.82;5.30;;;;;;;26.81;100.00;97683.88;5017410;28;20087;-85
2021/09/10 09:41:33;;;;;;;10.75;5.20;;;;;;;26.31;100.00;97687.34;5036018;28;20053;-85
2021/09/10 09:44:18;;;;;;;7.32;5.10;;;;;;;26.49;100.00;97692.66;5035582;28;20045;-84
2021/09/10 09:47:00;;;;;;;10.95;4.88;;;;;;;26.43;100.00;97697.88;5033769;28;20045;-83
2021/09/10 09:49:30;;;;;;;8.63;5.20;;;;;;;26.54;100.00;97704.09;5048444;28;20523;-85
2021/09/10 09:51:58;;;;;;;10.43;5.28;;;;;;;26.70;100.00;97691.56;5050921;28;20417;-84
2021/09/10 09:54:31;;;;;;;9.80;5.00;;;;;;;26.68;100.00;97700.31;5051755;28;20051;-85
2021/09/10 09:57:03;;;;;;;10.05;5.15;;;;;;;26.51;100.00;97681.91;5018674;28;20059;-85
2021/09/10 09:59:54;;;;;;;9.63;4.88;;;;;;;26.55;100.00;97677.09;5020577;28;20052;-86
2021/09/10 10:02:27;;;;;;;8.07;4.97;;;;;;;26.80;100.00;97679.53;5039676;28;20087;-85
2021/09/10 10:04:59;;;;;;;8.18;5.07;;;;;;;27.12;100.00;97697.28;5023639;28;20075;-85
2021/09/10 10:07:37;;;;;;;13.00;5.45;;;;;;;26.95;100.00;97695.56;5022205;28;20072;-84
2021/09/10 10:10:07;;;;;;;8.98;5.30;;;;;;;27.43;100.00;97691.59;5021412;28;20057;-83
2021/09/10 10:12:38;;;;;;;10.10;5.75;;;;;;;27.33;100.00;97681.44;5022586;28;20057;-84
2021/09/10 10:15:20;;;;;;;9.98;5.38;;;;;;;28.21;93.75;97699.25;5021750;28;20040;-84
2021/09/10 10:17:47;;;;;;;10.52;5.07;;;;;;;29.10;85.78;97703.59;5056057;28;20048;-83
2021/09/10 10:20:45;;;;;;;6.95;4.72;;;;;;;29.19;79.79;97692.63;5057108;28;20045;-83
2021/09/10 10:23:43;;;;;;;7.45;4.57;;;;;;;29.24;82.45;97703.28;5026360;28;20447;-85
2021/09/10 10:26:33;;;;;;;10.77;4.88;;;;;;;29.16;74.92;97704.66;5043323;28;20048;-86
2021/09/10 10:29:08;;;;;;;10.45;5.28;;;;;;;28.61;87.68;97694.38;5045656;28;20129;-84
2021/09/10 10:31:55;;;;;;;10.45;5.50;;;;;;;28.97;76.67;97706.31;5061830;28;20069;-86
2021/09/10 10:34:32;;;;;;;11.60;4.35;;;;;;;27.86;91.71;97691.56;5027675;28;20049;-86
2021/09/10 10:37:22;;;;;;;7.90;4.28;;;;;;;27.91;97.72;97683.53;5024719;28;20068;-85
2021/09/10 10:40:44;;;;;;;10.52;5.20;;;;;;;28.30;92.41;97683.53;5040401;28;20049;-86
2021/09/10 10:43:17;;;;;;;7.68;4.65;;;;;;;28.64;80.54;97696.34;5011330;28;20053;-84
2021/09/10 10:45:47;;;;;;;7.68;5.30;;;;;;;28.34;91.95;97681.44;5020099;28;20052;-82
2021/09/10 10:48:34;;;;;;;9.65;4.88;;;;;;;27.92;89.45;97684.31;5021744;28;20052;-84
2021/09/10 10:51:20;;;;;;;10.30;5.07;;;;;;;29.74;82.78;97680.44;5024412;28;20183;-84
2021/09/10 10:53:52;;;;;;;6.93;4.78;;;;;;;31.04;57.48;97675.78;5036659;28;20108;-85
2021/09/10 10:56:32;;;;;;;7.60;5.07;;;;;;;29.91;65.23;97679.19;5038626;28;20116;-85
2021/09/10 10:59:16;;;;;;;10.25;5.10;;;;;;;28.92;76.13;97678.94;5022126;28;20053;-86
2021/09/10 11:02:17;;;;;;;10.93;5.20;;;;;;;29.47;68.63;97673.19;5021722;28;20049;-85
2021/09/10 11:05:25;;;;;;;10.63;4.88;;;;;;;31.81;54.15;97659.13;5024046;28;20049;-83
2021/09/10 11:07:52;;;;;;;7.25;4.93;;;;;;;33.44;44.05;97664.72;5031610;28;20060;-85
2021/09/10 11:10:22;;;;;;;11.00;4.72;;;;;;;30.83;49.63;97668.84;5022850;28;20053;-85
2021/09/10 11:12:59;;;;;;;8.65;4.65;;;;;;;30.52;53.54;97651.84;5019481;28;20049;-86
2021/09/10 11:15:32;;;;;;;6.28;4.50;;;;;;;30.55;52.03;97647.38;5036361;28;20064;-86
2021/09/10 11:18:15;;;;;;;8.27;4.32;;;;;;;30.77;53.63;97651.84;5037289;28;20045;-87
2021/09/10 11:20:49;;;;;;;9.52;4.82;;;;;;;30.90;52.71;97640.63;5036133;28;20092;-84
2021/09/10 11:23:37;;;;;;;6.20;4.47;;;;;;;33.89;44.41;97658.34;5035502;28;20049;-84
2021/09/10 11:26:13;;;;;;;5.85;4.22;;;;;;;34.77;39.95;97650.66;5019990;28;20045;-85
2021/09/10 11:28:49;;;;;;;5.75;3.92;;;;;;;35.55;39.46;97642.72;5018857;28;20531;-85
2021/09/10 11:31:32;;;;;;;7.35;4.15;;;;;;;35.65;37.39;97638.56;5051644;28;20053;-84
2021/09/10 11:34:32;;;;;;;6.25;3.92;;;;;;;34.60;39.73;97635.44;5035557;28;20114;-86
2021/09/10 11:37:03;;;;;;;7.90;4.10;;;;;;;33.03;41.76;97649.19;5056830;23;20048;-84
2021/09/10 11:39:43;;;;;;;7.32;4.10;;;;;;;32.20;45.33;97646.50;5012764;28;20046;-83
2021/09/10 11:42:31;;;;;;;8.20;4.30;;;;;;;33.79;41.00;97642.75;5000424;28;20068;-82
2021/09/10 11:45:12;;;;;;;7.45;4.00;;;;;;;35.62;38.74;97633.13;5013802;28;20449;-85
2021/09/10 11:47:40;;;;;;;9.32;4.18;;;;;;;35.23;38.92;97632.28;5014712;28;20042;-87
2021/09/10 11:50:10;;;;;;;7.10;4.40;;;;;;;34.55;40.37;97639.69;5026803;28;20140;-87